sensor_id;sensor_type;location;lat;lon;timestamp;P1;durP1;ratioP1;P2;durP2;ratioP2
68300;SDS011;55146;47.468;18.806;2023-06-14T00:00:12;13.90;;;7.95;;
68300;SDS011;55146;47.468;18.806;2023-06-14T00:02:39;11.57;;;5.73;;
68300;SDS011;55146;47.468;18.806;2023-06-14T00:05:07;8.73;;;5.80;;
68300;SDS011;55146;47.468;18.806;2023-06-14T00:07:33;8.52;;;5.28;;
68300;SDS011;55146;47.468;18.806;2023-06-14T00:10:09;8.00;;;4.97;;
68300;SDS011;55146;47.468;18.806;2023-06-14T00:12:39;8.45;;;4.65;;
68300;SDS011;55146;47.468;18.806;2023-06-14T00:15:05;7.73;;;4.83;;
68300;SDS011;55146;47.468;18.806;2023-06-14T00:17:32;6.82;;;4.78;;
68300;SDS011;55146;47.468;18.806;2023-06-14T00:19:58;7.33;;;4.80;;
68300;SDS011;55146;47.468;18.806;2023-06-14T00:22:24;7.60;;;5.15;;
68300;SDS011;55146;47.468;18.806;2023-06-14T00:24:53;7.57;;;4.87;;
68300;SDS011;55146;47.468;18.806;2023-06-14T00:27:18;9.20;;;4.65;;
68300;SDS011;55146;47.468;18.806;2023-06-14T00:29:43;8.70;;;5.80;;
68300;SDS011;55146;47.468;18.806;2023-06-14T00:32:09;6.73;;;4.50;;
68300;SDS011;55146;47.468;18.806;2023-06-14T00:34:35;7.12;;;4.60;;
68300;SDS011;55146;47.468;18.806;2023-06-14T00:37:00;9.30;;;4.90;;
68300;SDS011;55146;47.468;18.806;2023-06-14T00:39:26;8.90;;;5.30;;
68300;SDS011;55146;47.468;18.806;2023-06-14T00:41:51;10.63;;;5.43;;
68300;SDS011;55146;47.468;18.806;2023-06-14T00:44:17;8.83;;;4.87;;
68300;SDS011;55146;47.468;18.806;2023-06-14T00:46:42;9.47;;;5.27;;
68300;SDS011;55146;47.468;18.806;2023-06-14T00:49:10;9.48;;;5.20;;
68300;SDS011;55146;47.468;18.806;2023-06-14T00:51:40;9.07;;;5.75;;
68300;SDS011;55146;47.468;18.806;2023-06-14T00:54:06;8.00;;;5.30;;
68300;SDS011;55146;47.468;18.806;2023-06-14T00:56:31;10.33;;;5.00;;
68300;SDS011;55146;47.468;18.806;2023-06-14T00:58:57;10.57;;;4.70;;
68300;SDS011;55146;47.468;18.806;2023-06-14T01:01:23;9.47;;;4.97;;
68300;SDS011;55146;47.468;18.806;2023-06-14T01:03:49;10.05;;;5.05;;
68300;SDS011;55146;47.468;18.806;2023-06-14T01:06:26;8.00;;;4.70;;
68300;SDS011;55146;47.468;18.806;2023-06-14T01:11:38;9.18;;;4.90;;
68300;SDS011;55146;47.468;18.806;2023-06-14T01:14:25;10.20;;;5.00;;
68300;SDS011;55146;47.468;18.806;2023-06-14T01:16:52;12.17;;;5.90;;
68300;SDS011;55146;47.468;18.806;2023-06-14T01:19:18;8.13;;;4.97;;
68300;SDS011;55146;47.468;18.806;2023-06-14T01:21:47;9.52;;;4.62;;
68300;SDS011;55146;47.468;18.806;2023-06-14T01:24:15;7.67;;;5.20;;
68300;SDS011;55146;47.468;18.806;2023-06-14T01:26:41;8.32;;;4.65;;
68300;SDS011;55146;47.468;18.806;2023-06-14T01:29:10;9.07;;;4.90;;
68300;SDS011;55146;47.468;18.806;2023-06-14T01:31:37;11.37;;;5.03;;
68300;SDS011;55146;47.468;18.806;2023-06-14T01:34:06;9.48;;;4.97;;
68300;SDS011;55146;47.468;18.806;2023-06-14T01:36:33;6.82;;;4.90;;
68300;SDS011;55146;47.468;18.806;2023-06-14T01:39:01;9.65;;;5.37;;
68300;SDS011;55146;47.468;18.806;2023-06-14T01:41:27;7.97;;;5.23;;
68300;SDS011;55146;47.468;18.806;2023-06-14T01:43:54;8.60;;;5.30;;
68300;SDS011;55146;47.468;18.806;2023-06-14T01:46:21;8.27;;;4.72;;
68300;SDS011;55146;47.468;18.806;2023-06-14T01:48:48;10.05;;;5.82;;
68300;SDS011;55146;47.468;18.806;2023-06-14T01:51:14;9.93;;;5.57;;
68300;SDS011;55146;47.468;18.806;2023-06-14T01:53:39;9.70;;;5.53;;
68300;SDS011;55146;47.468;18.806;2023-06-14T01:56:05;8.40;;;4.73;;
68300;SDS011;55146;47.468;18.806;2023-06-14T01:58:31;8.40;;;5.45;;
68300;SDS011;55146;47.468;18.806;2023-06-14T02:00:57;9.73;;;4.93;;
68300;SDS011;55146;47.468;18.806;2023-06-14T02:03:25;9.90;;;5.15;;
68300;SDS011;55146;47.468;18.806;2023-06-14T02:05:51;10.13;;;5.72;;
68300;SDS011;55146;47.468;18.806;2023-06-14T02:08:16;10.17;;;5.53;;
68300;SDS011;55146;47.468;18.806;2023-06-14T02:10:42;10.00;;;6.07;;
68300;SDS011;55146;47.468;18.806;2023-06-14T02:13:07;10.20;;;5.53;;
68300;SDS011;55146;47.468;18.806;2023-06-14T02:15:32;13.77;;;6.50;;
68300;SDS011;55146;47.468;18.806;2023-06-14T02:18:01;10.77;;;5.60;;
68300;SDS011;55146;47.468;18.806;2023-06-14T02:20:28;10.82;;;6.07;;
68300;SDS011;55146;47.468;18.806;2023-06-14T02:22:54;13.23;;;6.72;;
68300;SDS011;55146;47.468;18.806;2023-06-14T02:25:19;10.60;;;5.60;;
68300;SDS011;55146;47.468;18.806;2023-06-14T02:27:45;12.07;;;6.60;;
68300;SDS011;55146;47.468;18.806;2023-06-14T02:30:10;12.73;;;6.63;;
68300;SDS011;55146;47.468;18.806;2023-06-14T02:32:36;10.30;;;5.35;;
68300;SDS011;55146;47.468;18.806;2023-06-14T02:35:02;10.93;;;6.40;;
68300;SDS011;55146;47.468;18.806;2023-06-14T02:37:28;10.13;;;7.03;;
68300;SDS011;55146;47.468;18.806;2023-06-14T02:39:55;13.40;;;6.37;;
68300;SDS011;55146;47.468;18.806;2023-06-14T02:42:21;10.55;;;6.07;;
68300;SDS011;55146;47.468;18.806;2023-06-14T02:44:46;12.27;;;5.53;;
68300;SDS011;55146;47.468;18.806;2023-06-14T02:47:16;11.52;;;6.90;;
68300;SDS011;55146;47.468;18.806;2023-06-14T02:49:42;11.85;;;6.22;;
68300;SDS011;55146;47.468;18.806;2023-06-14T02:52:07;11.47;;;7.30;;
68300;SDS011;55146;47.468;18.806;2023-06-14T02:54:34;13.50;;;5.80;;
68300;SDS011;55146;47.468;18.806;2023-06-14T02:56:59;11.23;;;6.15;;
68300;SDS011;55146;47.468;18.806;2023-06-14T02:59:25;13.47;;;6.87;;
68300;SDS011;55146;47.468;18.806;2023-06-14T03:01:51;12.63;;;6.97;;
68300;SDS011;55146;47.468;18.806;2023-06-14T03:04:16;11.57;;;6.63;;
68300;SDS011;55146;47.468;18.806;2023-06-14T03:06:42;13.10;;;7.20;;
68300;SDS011;55146;47.468;18.806;2023-06-14T03:09:09;14.75;;;8.10;;
68300;SDS011;55146;47.468;18.806;2023-06-14T03:11:34;14.07;;;7.43;;
68300;SDS011;55146;47.468;18.806;2023-06-14T03:14:00;12.15;;;7.43;;
68300;SDS011;55146;47.468;18.806;2023-06-14T03:16:28;11.85;;;6.78;;
68300;SDS011;55146;47.468;18.806;2023-06-14T03:18:55;13.32;;;7.18;;
68300;SDS011;55146;47.468;18.806;2023-06-14T03:21:20;11.50;;;6.37;;
68300;SDS011;55146;47.468;18.806;2023-06-14T03:23:46;12.07;;;7.07;;
68300;SDS011;55146;47.468;18.806;2023-06-14T03:26:13;13.98;;;7.28;;
68300;SDS011;55146;47.468;18.806;2023-06-14T03:28:39;15.10;;;7.80;;
68300;SDS011;55146;47.468;18.806;2023-06-14T03:31:05;13.73;;;7.33;;
68300;SDS011;55146;47.468;18.806;2023-06-14T03:33:30;15.70;;;8.50;;
68300;SDS011;55146;47.468;18.806;2023-06-14T03:35:55;15.03;;;7.30;;
68300;SDS011;55146;47.468;18.806;2023-06-14T03:38:21;11.50;;;6.80;;
68300;SDS011;55146;47.468;18.806;2023-06-14T03:40:47;14.20;;;7.10;;
68300;SDS011;55146;47.468;18.806;2023-06-14T03:43:12;14.47;;;7.80;;
68300;SDS011;55146;47.468;18.806;2023-06-14T03:45:37;15.53;;;8.60;;
68300;SDS011;55146;47.468;18.806;2023-06-14T03:48:03;12.53;;;6.73;;
68300;SDS011;55146;47.468;18.806;2023-06-14T03:50:31;11.90;;;7.12;;
68300;SDS011;55146;47.468;18.806;2023-06-14T03:52:57;15.37;;;7.10;;
68300;SDS011;55146;47.468;18.806;2023-06-14T03:55:22;12.60;;;7.10;;
68300;SDS011;55146;47.468;18.806;2023-06-14T03:57:50;14.57;;;7.73;;
68300;SDS011;55146;47.468;18.806;2023-06-14T04:00:16;12.18;;;7.72;;
68300;SDS011;55146;47.468;18.806;2023-06-14T04:02:43;12.77;;;6.93;;
68300;SDS011;55146;47.468;18.806;2023-06-14T04:05:09;12.75;;;8.10;;
68300;SDS011;55146;47.468;18.806;2023-06-14T04:07:34;12.57;;;7.83;;
68300;SDS011;55146;47.468;18.806;2023-06-14T04:10:10;13.55;;;7.68;;
68300;SDS011;55146;47.468;18.806;2023-06-14T04:12:37;13.77;;;7.87;;
68300;SDS011;55146;47.468;18.806;2023-06-14T04:15:02;11.33;;;7.37;;
68300;SDS011;55146;47.468;18.806;2023-06-14T04:17:28;13.50;;;7.85;;
68300;SDS011;55146;47.468;18.806;2023-06-14T04:19:54;12.60;;;7.77;;
68300;SDS011;55146;47.468;18.806;2023-06-14T04:22:20;12.80;;;7.37;;
68300;SDS011;55146;47.468;18.806;2023-06-14T04:24:45;16.40;;;8.03;;
68300;SDS011;55146;47.468;18.806;2023-06-14T04:27:11;14.13;;;7.93;;
68300;SDS011;55146;47.468;18.806;2023-06-14T04:29:36;11.90;;;7.80;;
68300;SDS011;55146;47.468;18.806;2023-06-14T04:32:02;15.02;;;7.85;;
68300;SDS011;55146;47.468;18.806;2023-06-14T04:34:28;14.27;;;8.07;;
68300;SDS011;55146;47.468;18.806;2023-06-14T04:36:59;13.80;;;8.00;;
68300;SDS011;55146;47.468;18.806;2023-06-14T04:39:26;12.55;;;7.05;;
68300;SDS011;55146;47.468;18.806;2023-06-14T04:41:52;13.68;;;7.72;;
68300;SDS011;55146;47.468;18.806;2023-06-14T04:44:21;15.18;;;7.62;;
68300;SDS011;55146;47.468;18.806;2023-06-14T04:46:49;12.23;;;7.18;;
68300;SDS011;55146;47.468;18.806;2023-06-14T04:49:15;13.90;;;6.83;;
68300;SDS011;55146;47.468;18.806;2023-06-14T04:51:42;12.95;;;7.97;;
68300;SDS011;55146;47.468;18.806;2023-06-14T04:54:08;15.73;;;8.18;;
68300;SDS011;55146;47.468;18.806;2023-06-14T04:56:39;14.07;;;8.57;;
68300;SDS011;55146;47.468;18.806;2023-06-14T04:59:05;12.35;;;7.37;;
68300;SDS011;55146;47.468;18.806;2023-06-14T05:01:30;14.23;;;8.57;;
68300;SDS011;55146;47.468;18.806;2023-06-14T05:03:59;14.77;;;7.53;;
68300;SDS011;55146;47.468;18.806;2023-06-14T05:06:25;13.82;;;7.43;;
68300;SDS011;55146;47.468;18.806;2023-06-14T05:08:53;12.80;;;7.45;;
68300;SDS011;55146;47.468;18.806;2023-06-14T05:11:18;11.93;;;7.17;;
68300;SDS011;55146;47.468;18.806;2023-06-14T05:13:44;14.77;;;7.28;;
68300;SDS011;55146;47.468;18.806;2023-06-14T05:16:10;13.40;;;7.03;;
68300;SDS011;55146;47.468;18.806;2023-06-14T05:18:36;14.00;;;7.73;;
68300;SDS011;55146;47.468;18.806;2023-06-14T05:21:02;12.93;;;7.68;;
68300;SDS011;55146;47.468;18.806;2023-06-14T05:23:29;12.85;;;7.50;;
68300;SDS011;55146;47.468;18.806;2023-06-14T05:25:55;14.23;;;7.00;;
68300;SDS011;55146;47.468;18.806;2023-06-14T05:28:20;13.02;;;7.12;;
68300;SDS011;55146;47.468;18.806;2023-06-14T05:30:45;12.30;;;7.23;;
68300;SDS011;55146;47.468;18.806;2023-06-14T05:33:11;12.27;;;6.73;;
68300;SDS011;55146;47.468;18.806;2023-06-14T05:35:36;12.60;;;7.23;;
68300;SDS011;55146;47.468;18.806;2023-06-14T05:38:02;12.55;;;6.78;;
68300;SDS011;55146;47.468;18.806;2023-06-14T05:40:28;13.10;;;7.13;;
68300;SDS011;55146;47.468;18.806;2023-06-14T05:42:53;11.97;;;7.43;;
68300;SDS011;55146;47.468;18.806;2023-06-14T05:45:19;12.33;;;7.00;;
68300;SDS011;55146;47.468;18.806;2023-06-14T05:47:44;15.37;;;7.90;;
68300;SDS011;55146;47.468;18.806;2023-06-14T05:50:09;12.10;;;6.82;;
68300;SDS011;55146;47.468;18.806;2023-06-14T05:52:35;13.60;;;7.10;;
68300;SDS011;55146;47.468;18.806;2023-06-14T05:55:01;15.38;;;6.82;;
68300;SDS011;55146;47.468;18.806;2023-06-14T05:57:28;16.27;;;7.78;;
68300;SDS011;55146;47.468;18.806;2023-06-14T05:59:54;13.07;;;6.40;;
68300;SDS011;55146;47.468;18.806;2023-06-14T06:02:20;11.40;;;7.35;;
68300;SDS011;55146;47.468;18.806;2023-06-14T06:04:45;14.20;;;7.23;;
68300;SDS011;55146;47.468;18.806;2023-06-14T06:07:11;9.57;;;5.93;;
68300;SDS011;55146;47.468;18.806;2023-06-14T06:09:36;10.13;;;6.17;;
68300;SDS011;55146;47.468;18.806;2023-06-14T06:12:02;10.80;;;5.73;;
68300;SDS011;55146;47.468;18.806;2023-06-14T06:14:27;10.27;;;6.37;;
68300;SDS011;55146;47.468;18.806;2023-06-14T06:16:54;9.97;;;6.43;;
68300;SDS011;55146;47.468;18.806;2023-06-14T06:19:19;11.27;;;6.35;;
68300;SDS011;55146;47.468;18.806;2023-06-14T06:21:45;10.40;;;5.77;;
68300;SDS011;55146;47.468;18.806;2023-06-14T06:24:10;9.67;;;5.23;;
68300;SDS011;55146;47.468;18.806;2023-06-14T06:26:35;10.85;;;6.30;;
68300;SDS011;55146;47.468;18.806;2023-06-14T06:29:01;11.13;;;5.73;;
68300;SDS011;55146;47.468;18.806;2023-06-14T06:31:26;11.47;;;4.83;;
68300;SDS011;55146;47.468;18.806;2023-06-14T06:33:52;11.30;;;5.03;;
68300;SDS011;55146;47.468;18.806;2023-06-14T06:36:19;11.70;;;5.20;;
68300;SDS011;55146;47.468;18.806;2023-06-14T06:38:45;8.50;;;4.85;;
68300;SDS011;55146;47.468;18.806;2023-06-14T06:41:10;10.93;;;6.10;;
68300;SDS011;55146;47.468;18.806;2023-06-14T06:43:54;9.50;;;5.28;;
68300;SDS011;55146;47.468;18.806;2023-06-14T06:46:19;9.37;;;5.80;;
68300;SDS011;55146;47.468;18.806;2023-06-14T06:48:45;13.50;;;5.60;;
68300;SDS011;55146;47.468;18.806;2023-06-14T06:51:10;10.07;;;6.07;;
68300;SDS011;55146;47.468;18.806;2023-06-14T06:53:36;10.32;;;6.15;;
68300;SDS011;55146;47.468;18.806;2023-06-14T06:56:02;12.33;;;5.80;;
68300;SDS011;55146;47.468;18.806;2023-06-14T06:58:27;8.95;;;5.95;;
68300;SDS011;55146;47.468;18.806;2023-06-14T07:00:53;11.13;;;6.30;;
68300;SDS011;55146;47.468;18.806;2023-06-14T07:03:18;14.23;;;5.90;;
68300;SDS011;55146;47.468;18.806;2023-06-14T07:05:43;9.33;;;5.63;;
68300;SDS011;55146;47.468;18.806;2023-06-14T07:08:09;11.80;;;5.63;;
68300;SDS011;55146;47.468;18.806;2023-06-14T07:10:34;11.60;;;6.07;;
68300;SDS011;55146;47.468;18.806;2023-06-14T07:13:00;16.27;;;6.03;;
68300;SDS011;55146;47.468;18.806;2023-06-14T07:15:25;13.27;;;5.63;;
68300;SDS011;55146;47.468;18.806;2023-06-14T07:17:50;9.70;;;5.70;;
68300;SDS011;55146;47.468;18.806;2023-06-14T07:20:16;10.30;;;5.72;;
68300;SDS011;55146;47.468;18.806;2023-06-14T07:22:42;8.97;;;5.90;;
68300;SDS011;55146;47.468;18.806;2023-06-14T07:25:10;13.23;;;6.12;;
68300;SDS011;55146;47.468;18.806;2023-06-14T07:27:42;10.20;;;6.18;;
68300;SDS011;55146;47.468;18.806;2023-06-14T07:30:08;11.57;;;5.97;;
68300;SDS011;55146;47.468;18.806;2023-06-14T07:32:34;10.98;;;6.07;;
68300;SDS011;55146;47.468;18.806;2023-06-14T07:34:59;14.37;;;5.93;;
68300;SDS011;55146;47.468;18.806;2023-06-14T07:37:25;10.25;;;6.03;;
68300;SDS011;55146;47.468;18.806;2023-06-14T07:39:50;11.10;;;6.47;;
68300;SDS011;55146;47.468;18.806;2023-06-14T07:42:16;11.13;;;6.67;;
68300;SDS011;55146;47.468;18.806;2023-06-14T07:44:41;9.63;;;5.93;;
68300;SDS011;55146;47.468;18.806;2023-06-14T07:47:06;11.57;;;7.03;;
68300;SDS011;55146;47.468;18.806;2023-06-14T07:49:32;13.17;;;6.00;;
68300;SDS011;55146;47.468;18.806;2023-06-14T07:51:57;9.27;;;5.60;;
68300;SDS011;55146;47.468;18.806;2023-06-14T07:54:23;13.38;;;6.15;;
68300;SDS011;55146;47.468;18.806;2023-06-14T07:56:51;11.83;;;6.30;;
68300;SDS011;55146;47.468;18.806;2023-06-14T07:59:17;11.55;;;5.60;;
68300;SDS011;55146;47.468;18.806;2023-06-14T08:01:42;9.53;;;5.50;;
68300;SDS011;55146;47.468;18.806;2023-06-14T08:04:12;9.88;;;5.35;;
68300;SDS011;55146;47.468;18.806;2023-06-14T08:06:40;11.05;;;5.60;;
68300;SDS011;55146;47.468;18.806;2023-06-14T08:09:09;12.27;;;5.05;;
68300;SDS011;55146;47.468;18.806;2023-06-14T08:11:34;10.23;;;5.07;;
68300;SDS011;55146;47.468;18.806;2023-06-14T08:14:00;7.85;;;4.60;;
68300;SDS011;55146;47.468;18.806;2023-06-14T08:16:25;10.40;;;5.00;;
68300;SDS011;55146;47.468;18.806;2023-06-14T08:18:51;11.47;;;5.20;;
68300;SDS011;55146;47.468;18.806;2023-06-14T08:21:16;11.00;;;5.47;;
68300;SDS011;55146;47.468;18.806;2023-06-14T08:23:41;13.53;;;5.20;;
68300;SDS011;55146;47.468;18.806;2023-06-14T08:26:18;10.25;;;5.15;;
68300;SDS011;55146;47.468;18.806;2023-06-14T08:28:43;10.10;;;5.25;;
68300;SDS011;55146;47.468;18.806;2023-06-14T08:31:09;10.47;;;4.43;;
68300;SDS011;55146;47.468;18.806;2023-06-14T08:33:34;9.17;;;5.10;;
68300;SDS011;55146;47.468;18.806;2023-06-14T08:36:00;14.23;;;6.03;;
68300;SDS011;55146;47.468;18.806;2023-06-14T08:38:25;10.40;;;4.87;;
68300;SDS011;55146;47.468;18.806;2023-06-14T08:40:51;13.43;;;5.67;;
68300;SDS011;55146;47.468;18.806;2023-06-14T08:43:17;11.55;;;4.68;;
68300;SDS011;55146;47.468;18.806;2023-06-14T08:45:43;10.13;;;5.10;;
68300;SDS011;55146;47.468;18.806;2023-06-14T08:48:13;9.88;;;5.45;;
68300;SDS011;55146;47.468;18.806;2023-06-14T08:50:42;9.98;;;5.75;;
68300;SDS011;55146;47.468;18.806;2023-06-14T08:53:11;8.68;;;5.22;;
68300;SDS011;55146;47.468;18.806;2023-06-14T08:55:44;9.40;;;5.95;;
68300;SDS011;55146;47.468;18.806;2023-06-14T08:58:10;12.33;;;6.03;;
68300;SDS011;55146;47.468;18.806;2023-06-14T09:00:39;10.60;;;6.00;;
68300;SDS011;55146;47.468;18.806;2023-06-14T09:03:06;9.45;;;6.22;;
68300;SDS011;55146;47.468;18.806;2023-06-14T09:05:38;11.48;;;6.37;;
68300;SDS011;55146;47.468;18.806;2023-06-14T09:08:03;12.07;;;6.07;;
68300;SDS011;55146;47.468;18.806;2023-06-14T09:10:30;11.57;;;6.57;;
68300;SDS011;55146;47.468;18.806;2023-06-14T09:13:00;12.02;;;6.05;;
68300;SDS011;55146;47.468;18.806;2023-06-14T09:15:26;11.43;;;6.47;;
68300;SDS011;55146;47.468;18.806;2023-06-14T09:17:51;13.20;;;5.85;;
68300;SDS011;55146;47.468;18.806;2023-06-14T09:20:18;12.73;;;5.77;;
68300;SDS011;55146;47.468;18.806;2023-06-14T09:22:44;9.82;;;5.60;;
68300;SDS011;55146;47.468;18.806;2023-06-14T09:25:10;10.10;;;6.18;;
68300;SDS011;55146;47.468;18.806;2023-06-14T09:27:37;9.73;;;6.03;;
68300;SDS011;55146;47.468;18.806;2023-06-14T09:30:05;13.77;;;6.90;;
68300;SDS011;55146;47.468;18.806;2023-06-14T09:32:32;12.35;;;7.18;;
68300;SDS011;55146;47.468;18.806;2023-06-14T09:35:07;11.45;;;7.53;;
68300;SDS011;55146;47.468;18.806;2023-06-14T09:37:33;12.48;;;7.07;;
68300;SDS011;55146;47.468;18.806;2023-06-14T09:40:00;11.30;;;6.90;;
68300;SDS011;55146;47.468;18.806;2023-06-14T09:42:25;9.40;;;5.72;;
68300;SDS011;55146;47.468;18.806;2023-06-14T09:44:51;9.00;;;4.97;;
68300;SDS011;55146;47.468;18.806;2023-06-14T09:47:19;9.73;;;5.60;;
68300;SDS011;55146;47.468;18.806;2023-06-14T09:49:46;10.32;;;5.25;;
68300;SDS011;55146;47.468;18.806;2023-06-14T09:52:19;9.13;;;5.23;;
68300;SDS011;55146;47.468;18.806;2023-06-14T09:54:46;9.80;;;4.45;;
68300;SDS011;55146;47.468;18.806;2023-06-14T09:57:22;8.27;;;4.87;;
68300;SDS011;55146;47.468;18.806;2023-06-14T09:59:48;7.82;;;5.53;;
68300;SDS011;55146;47.468;18.806;2023-06-14T10:02:28;7.72;;;5.28;;
68300;SDS011;55146;47.468;18.806;2023-06-14T10:05:08;9.03;;;4.93;;
68300;SDS011;55146;47.468;18.806;2023-06-14T10:07:40;8.27;;;5.32;;
68300;SDS011;55146;47.468;18.806;2023-06-14T10:10:07;8.02;;;4.62;;
68300;SDS011;55146;47.468;18.806;2023-06-14T10:12:33;7.53;;;4.82;;
68300;SDS011;55146;47.468;18.806;2023-06-14T10:14:58;9.50;;;5.00;;
68300;SDS011;55146;47.468;18.806;2023-06-14T10:17:27;10.50;;;4.45;;
68300;SDS011;55146;47.468;18.806;2023-06-14T10:22:47;9.63;;;4.30;;
68300;SDS011;55146;47.468;18.806;2023-06-14T10:25:31;8.07;;;4.53;;
68300;SDS011;55146;47.468;18.806;2023-06-14T10:28:30;8.38;;;4.35;;
68300;SDS011;55146;47.468;18.806;2023-06-14T10:31:09;7.87;;;4.00;;
68300;SDS011;55146;47.468;18.806;2023-06-14T10:33:49;9.20;;;4.75;;
68300;SDS011;55146;47.468;18.806;2023-06-14T10:38:46;6.67;;;3.73;;
68300;SDS011;55146;47.468;18.806;2023-06-14T10:41:22;8.05;;;3.92;;
68300;SDS011;55146;47.468;18.806;2023-06-14T10:43:48;7.53;;;4.20;;
68300;SDS011;55146;47.468;18.806;2023-06-14T10:46:17;8.53;;;3.93;;
68300;SDS011;55146;47.468;18.806;2023-06-14T10:48:46;7.68;;;4.30;;
68300;SDS011;55146;47.468;18.806;2023-06-14T10:51:15;7.83;;;4.00;;
68300;SDS011;55146;47.468;18.806;2023-06-14T10:53:45;8.50;;;4.43;;
68300;SDS011;55146;47.468;18.806;2023-06-14T10:58:54;6.45;;;3.97;;
68300;SDS011;55146;47.468;18.806;2023-06-14T11:01:23;9.13;;;4.47;;
68300;SDS011;55146;47.468;18.806;2023-06-14T11:04:08;8.55;;;4.60;;
68300;SDS011;55146;47.468;18.806;2023-06-14T11:06:45;8.07;;;3.62;;
68300;SDS011;55146;47.468;18.806;2023-06-14T11:09:25;6.85;;;4.87;;
68300;SDS011;55146;47.468;18.806;2023-06-14T11:12:10;9.48;;;4.47;;
68300;SDS011;55146;47.468;18.806;2023-06-14T11:14:38;7.63;;;5.03;;
68300;SDS011;55146;47.468;18.806;2023-06-14T11:17:04;6.20;;;4.62;;
68300;SDS011;55146;47.468;18.806;2023-06-14T11:19:29;9.30;;;4.20;;
68300;SDS011;55146;47.468;18.806;2023-06-14T11:21:55;6.27;;;4.07;;
68300;SDS011;55146;47.468;18.806;2023-06-14T11:24:20;6.93;;;4.33;;
68300;SDS011;55146;47.468;18.806;2023-06-14T11:26:46;7.62;;;4.00;;
68300;SDS011;55146;47.468;18.806;2023-06-14T11:29:14;7.33;;;3.37;;
68300;SDS011;55146;47.468;18.806;2023-06-14T11:31:43;5.90;;;3.90;;
68300;SDS011;55146;47.468;18.806;2023-06-14T11:34:11;5.35;;;2.92;;
68300;SDS011;55146;47.468;18.806;2023-06-14T11:36:38;7.53;;;3.95;;
68300;SDS011;55146;47.468;18.806;2023-06-14T11:39:04;6.55;;;4.45;;
68300;SDS011;55146;47.468;18.806;2023-06-14T11:41:43;6.80;;;4.83;;
68300;SDS011;55146;47.468;18.806;2023-06-14T11:44:09;8.45;;;3.62;;
68300;SDS011;55146;47.468;18.806;2023-06-14T11:46:35;6.18;;;4.35;;
68300;SDS011;55146;47.468;18.806;2023-06-14T11:49:01;9.20;;;4.43;;
68300;SDS011;55146;47.468;18.806;2023-06-14T11:51:32;7.12;;;4.43;;
68300;SDS011;55146;47.468;18.806;2023-06-14T11:53:58;8.20;;;4.60;;
68300;SDS011;55146;47.468;18.806;2023-06-14T11:56:25;12.60;;;4.82;;
68300;SDS011;55146;47.468;18.806;2023-06-14T11:58:52;8.67;;;5.00;;
68300;SDS011;55146;47.468;18.806;2023-06-14T12:01:17;6.87;;;4.03;;
68300;SDS011;55146;47.468;18.806;2023-06-14T12:03:47;8.57;;;4.05;;
68300;SDS011;55146;47.468;18.806;2023-06-14T12:06:13;7.57;;;4.28;;
68300;SDS011;55146;47.468;18.806;2023-06-14T12:08:39;10.47;;;4.60;;
68300;SDS011;55146;47.468;18.806;2023-06-14T12:11:14;10.20;;;3.92;;
68300;SDS011;55146;47.468;18.806;2023-06-14T12:13:43;10.00;;;4.30;;
68300;SDS011;55146;47.468;18.806;2023-06-14T12:16:12;6.40;;;3.62;;
68300;SDS011;55146;47.468;18.806;2023-06-14T12:18:38;7.90;;;4.35;;
68300;SDS011;55146;47.468;18.806;2023-06-14T12:21:06;5.82;;;3.67;;
68300;SDS011;55146;47.468;18.806;2023-06-14T12:24:05;8.40;;;3.40;;
68300;SDS011;55146;47.468;18.806;2023-06-14T12:26:24;7.20;;;3.97;;
68300;SDS011;55146;47.468;18.806;2023-06-14T12:28:51;8.10;;;3.92;;
68300;SDS011;55146;47.468;18.806;2023-06-14T12:31:16;13.68;;;4.78;;
68300;SDS011;55146;47.468;18.806;2023-06-14T12:33:43;8.18;;;4.40;;
68300;SDS011;55146;47.468;18.806;2023-06-14T12:36:10;8.82;;;4.20;;
68300;SDS011;55146;47.468;18.806;2023-06-14T12:38:36;6.93;;;4.30;;
68300;SDS011;55146;47.468;18.806;2023-06-14T12:41:02;8.77;;;4.18;;
68300;SDS011;55146;47.468;18.806;2023-06-14T12:43:28;9.47;;;5.27;;
68300;SDS011;55146;47.468;18.806;2023-06-14T12:45:54;9.50;;;4.90;;
68300;SDS011;55146;47.468;18.806;2023-06-14T12:48:19;7.10;;;3.92;;
68300;SDS011;55146;47.468;18.806;2023-06-14T12:50:45;7.47;;;3.95;;
68300;SDS011;55146;47.468;18.806;2023-06-14T12:53:11;9.07;;;4.73;;
68300;SDS011;55146;47.468;18.806;2023-06-14T12:55:37;10.30;;;4.65;;
68300;SDS011;55146;47.468;18.806;2023-06-14T12:58:02;12.60;;;4.60;;
68300;SDS011;55146;47.468;18.806;2023-06-14T13:00:28;14.70;;;4.87;;
68300;SDS011;55146;47.468;18.806;2023-06-14T13:02:55;6.47;;;4.10;;
68300;SDS011;55146;47.468;18.806;2023-06-14T13:05:21;8.05;;;4.15;;
68300;SDS011;55146;47.468;18.806;2023-06-14T13:07:47;7.83;;;4.77;;
68300;SDS011;55146;47.468;18.806;2023-06-14T13:10:12;8.67;;;3.83;;
68300;SDS011;55146;47.468;18.806;2023-06-14T13:12:37;7.73;;;4.53;;
68300;SDS011;55146;47.468;18.806;2023-06-14T13:15:03;6.10;;;3.50;;
68300;SDS011;55146;47.468;18.806;2023-06-14T13:17:29;6.23;;;3.60;;
68300;SDS011;55146;47.468;18.806;2023-06-14T13:19:54;6.47;;;3.85;;
68300;SDS011;55146;47.468;18.806;2023-06-14T13:22:20;7.20;;;3.50;;
68300;SDS011;55146;47.468;18.806;2023-06-14T13:24:45;8.87;;;3.87;;
68300;SDS011;55146;47.468;18.806;2023-06-14T13:27:11;8.43;;;3.70;;
68300;SDS011;55146;47.468;18.806;2023-06-14T13:29:39;6.18;;;3.28;;
68300;SDS011;55146;47.468;18.806;2023-06-14T13:32:05;7.40;;;4.47;;
68300;SDS011;55146;47.468;18.806;2023-06-14T13:34:30;9.17;;;4.63;;
68300;SDS011;55146;47.468;18.806;2023-06-14T13:36:56;5.87;;;3.30;;
68300;SDS011;55146;47.468;18.806;2023-06-14T13:39:21;7.72;;;3.58;;
68300;SDS011;55146;47.468;18.806;2023-06-14T13:44:20;6.80;;;3.47;;
68300;SDS011;55146;47.468;18.806;2023-06-14T13:46:46;7.85;;;3.35;;
68300;SDS011;55146;47.468;18.806;2023-06-14T13:49:12;9.07;;;3.30;;
68300;SDS011;55146;47.468;18.806;2023-06-14T13:51:37;5.70;;;3.35;;
68300;SDS011;55146;47.468;18.806;2023-06-14T13:54:03;7.50;;;3.60;;
68300;SDS011;55146;47.468;18.806;2023-06-14T13:56:29;6.60;;;3.25;;
68300;SDS011;55146;47.468;18.806;2023-06-14T13:58:54;5.60;;;3.40;;
68300;SDS011;55146;47.468;18.806;2023-06-14T14:01:20;7.70;;;3.90;;
68300;SDS011;55146;47.468;18.806;2023-06-14T14:03:46;5.67;;;3.17;;
68300;SDS011;55146;47.468;18.806;2023-06-14T14:06:12;6.75;;;4.20;;
68300;SDS011;55146;47.468;18.806;2023-06-14T14:08:38;5.82;;;3.62;;
68300;SDS011;55146;47.468;18.806;2023-06-14T14:11:04;6.87;;;4.00;;
68300;SDS011;55146;47.468;18.806;2023-06-14T14:13:30;8.27;;;3.60;;
68300;SDS011;55146;47.468;18.806;2023-06-14T14:15:56;7.47;;;3.47;;
68300;SDS011;55146;47.468;18.806;2023-06-14T14:18:21;9.65;;;3.62;;
68300;SDS011;55146;47.468;18.806;2023-06-14T14:20:47;6.90;;;4.20;;
68300;SDS011;55146;47.468;18.806;2023-06-14T14:23:13;7.07;;;3.60;;
68300;SDS011;55146;47.468;18.806;2023-06-14T14:25:38;7.23;;;3.33;;
68300;SDS011;55146;47.468;18.806;2023-06-14T14:28:04;9.77;;;3.83;;
68300;SDS011;55146;47.468;18.806;2023-06-14T14:30:29;7.80;;;3.60;;
68300;SDS011;55146;47.468;18.806;2023-06-14T14:32:54;8.67;;;3.40;;
68300;SDS011;55146;47.468;18.806;2023-06-14T14:35:20;7.77;;;4.63;;
68300;SDS011;55146;47.468;18.806;2023-06-14T14:37:47;7.45;;;4.12;;
68300;SDS011;55146;47.468;18.806;2023-06-14T14:40:13;7.07;;;4.10;;